sensor_id;sensor_type;location;lat;lon;timestamp;P1;durP1;ratioP1;P2;durP2;ratioP2
6013;SDS011;3035;49.928;8.410;2024-03-17T00:02:19;6.43;;;4.30;;
6013;SDS011;3035;49.928;8.410;2024-03-17T00:04:48;7.40;;;5.23;;
6013;SDS011;3035;49.928;8.410;2024-03-17T00:07:15;6.60;;;4.33;;
6013;SDS011;3035;49.928;8.410;2024-03-17T00:09:43;6.07;;;4.97;;
6013;SDS011;3035;49.928;8.410;2024-03-17T00:12:10;7.33;;;4.57;;
6013;SDS011;3035;49.928;8.410;2024-03-17T00:14:38;11.63;;;5.20;;
6013;SDS011;3035;49.928;8.410;2024-03-17T00:17:05;5.47;;;4.80;;
6013;SDS011;3035;49.928;8.410;2024-03-17T00:19:33;8.03;;;5.40;;
6013;SDS011;3035;49.928;8.410;2024-03-17T00:22:00;9.50;;;5.93;;
6013;SDS011;3035;49.928;8.410;2024-03-17T00:24:27;7.40;;;6.00;;
6013;SDS011;3035;49.928;8.410;2024-03-17T00:26:55;10.00;;;6.10;;
6013;SDS011;3035;49.928;8.410;2024-03-17T00:29:22;17.70;;;8.57;;
6013;SDS011;3035;49.928;8.410;2024-03-17T00:31:50;13.67;;;6.80;;
6013;SDS011;3035;49.928;8.410;2024-03-17T00:34:17;7.83;;;5.60;;
6013;SDS011;3035;49.928;8.410;2024-03-17T00:36:45;9.20;;;5.13;;
6013;SDS011;3035;49.928;8.410;2024-03-17T00:39:12;11.50;;;5.63;;
6013;SDS011;3035;49.928;8.410;2024-03-17T00:41:40;7.87;;;5.03;;
6013;SDS011;3035;49.928;8.410;2024-03-17T00:44:07;15.67;;;5.30;;
6013;SDS011;3035;49.928;8.410;2024-03-17T00:46:35;9.73;;;5.50;;
6013;SDS011;3035;49.928;8.410;2024-03-17T00:49:02;7.87;;;5.10;;
6013;SDS011;3035;49.928;8.410;2024-03-17T00:51:29;6.73;;;5.03;;
6013;SDS011;3035;49.928;8.410;2024-03-17T00:53:57;5.70;;;4.50;;
6013;SDS011;3035;49.928;8.410;2024-03-17T00:56:24;6.73;;;4.97;;
6013;SDS011;3035;49.928;8.410;2024-03-17T00:58:52;7.30;;;5.40;;
6013;SDS011;3035;49.928;8.410;2024-03-17T01:01:19;6.93;;;5.20;;
6013;SDS011;3035;49.928;8.410;2024-03-17T01:03:47;7.70;;;5.13;;
6013;SDS011;3035;49.928;8.410;2024-03-17T01:06:14;9.03;;;5.50;;
6013;SDS011;3035;49.928;8.410;2024-03-17T01:08:42;11.70;;;4.93;;
6013;SDS011;3035;49.928;8.410;2024-03-17T01:11:13;9.53;;;5.30;;
6013;SDS011;3035;49.928;8.410;2024-03-17T01:13:37;10.43;;;4.53;;
6013;SDS011;3035;49.928;8.410;2024-03-17T01:16:04;5.83;;;4.53;;
6013;SDS011;3035;49.928;8.410;2024-03-17T01:18:32;11.00;;;5.67;;
6013;SDS011;3035;49.928;8.410;2024-03-17T01:20:59;10.10;;;5.13;;
6013;SDS011;3035;49.928;8.410;2024-03-17T01:23:26;9.07;;;6.27;;
6013;SDS011;3035;49.928;8.410;2024-03-17T01:25:54;10.40;;;6.37;;
6013;SDS011;3035;49.928;8.410;2024-03-17T01:28:21;8.33;;;5.07;;
6013;SDS011;3035;49.928;8.410;2024-03-17T01:30:49;5.63;;;4.83;;
6013;SDS011;3035;49.928;8.410;2024-03-17T01:33:16;9.43;;;4.77;;
6013;SDS011;3035;49.928;8.410;2024-03-17T01:35:44;10.40;;;6.07;;
6013;SDS011;3035;49.928;8.410;2024-03-17T01:38:11;9.73;;;6.57;;
6013;SDS011;3035;49.928;8.410;2024-03-17T01:40:39;7.50;;;5.93;;
6013;SDS011;3035;49.928;8.410;2024-03-17T01:43:09;9.00;;;5.97;;
6013;SDS011;3035;49.928;8.410;2024-03-17T01:45:34;8.93;;;6.20;;
6013;SDS011;3035;49.928;8.410;2024-03-17T01:48:02;6.67;;;5.10;;
6013;SDS011;3035;49.928;8.410;2024-03-17T01:50:33;11.57;;;5.67;;
6013;SDS011;3035;49.928;8.410;2024-03-17T01:53:00;7.27;;;5.57;;
6013;SDS011;3035;49.928;8.410;2024-03-17T01:55:26;9.93;;;5.47;;
6013;SDS011;3035;49.928;8.410;2024-03-17T01:57:54;8.07;;;5.40;;
6013;SDS011;3035;49.928;8.410;2024-03-17T02:00:21;6.00;;;4.90;;
6013;SDS011;3035;49.928;8.410;2024-03-17T02:02:49;7.40;;;5.20;;
6013;SDS011;3035;49.928;8.410;2024-03-17T02:05:16;6.63;;;5.00;;
6013;SDS011;3035;49.928;8.410;2024-03-17T02:07:44;8.07;;;5.90;;
6013;SDS011;3035;49.928;8.410;2024-03-17T02:10:11;6.17;;;4.77;;
6013;SDS011;3035;49.928;8.410;2024-03-17T02:12:38;10.17;;;4.70;;
6013;SDS011;3035;49.928;8.410;2024-03-17T02:15:06;7.77;;;5.50;;
6013;SDS011;3035;49.928;8.410;2024-03-17T02:17:34;8.37;;;5.67;;
6013;SDS011;3035;49.928;8.410;2024-03-17T02:20:02;7.70;;;5.60;;
6013;SDS011;3035;49.928;8.410;2024-03-17T02:22:29;11.63;;;6.20;;
6013;SDS011;3035;49.928;8.410;2024-03-17T02:24:56;8.83;;;5.37;;
6013;SDS011;3035;49.928;8.410;2024-03-17T02:27:24;6.73;;;5.40;;
6013;SDS011;3035;49.928;8.410;2024-03-17T02:29:51;10.50;;;5.00;;
6013;SDS011;3035;49.928;8.410;2024-03-17T02:32:19;8.20;;;5.23;;
6013;SDS011;3035;49.928;8.410;2024-03-17T02:34:46;6.70;;;4.83;;
6013;SDS011;3035;49.928;8.410;2024-03-17T02:37:14;7.40;;;5.50;;
6013;SDS011;3035;49.928;8.410;2024-03-17T02:39:41;7.53;;;5.20;;
6013;SDS011;3035;49.928;8.410;2024-03-17T02:42:10;7.97;;;5.70;;
6013;SDS011;3035;49.928;8.410;2024-03-17T02:44:37;7.90;;;5.37;;
6013;SDS011;3035;49.928;8.410;2024-03-17T02:47:05;10.33;;;6.70;;
6013;SDS011;3035;49.928;8.410;2024-03-17T02:49:36;8.73;;;5.90;;
6013;SDS011;3035;49.928;8.410;2024-03-17T02:52:05;10.57;;;5.83;;
6013;SDS011;3035;49.928;8.410;2024-03-17T02:54:33;13.00;;;5.87;;
6013;SDS011;3035;49.928;8.410;2024-03-17T02:57:02;7.97;;;5.23;;
6013;SDS011;3035;49.928;8.410;2024-03-17T02:59:29;7.20;;;5.57;;
6013;SDS011;3035;49.928;8.410;2024-03-17T03:01:56;11.53;;;5.57;;
6013;SDS011;3035;49.928;8.410;2024-03-17T03:04:24;9.03;;;5.40;;
6013;SDS011;3035;49.928;8.410;2024-03-17T03:06:53;9.30;;;5.17;;
6013;SDS011;3035;49.928;8.410;2024-03-17T03:09:21;8.07;;;5.93;;
6013;SDS011;3035;49.928;8.410;2024-03-17T03:11:53;5.70;;;4.93;;
6013;SDS011;3035;49.928;8.410;2024-03-17T03:14:21;6.00;;;5.40;;
6013;SDS011;3035;49.928;8.410;2024-03-17T03:16:49;6.90;;;4.70;;
6013;SDS011;3035;49.928;8.410;2024-03-17T03:19:18;6.90;;;5.30;;
6013;SDS011;3035;49.928;8.410;2024-03-17T03:21:46;6.80;;;4.57;;
6013;SDS011;3035;49.928;8.410;2024-03-17T03:24:14;5.90;;;4.50;;
6013;SDS011;3035;49.928;8.410;2024-03-17T03:26:41;5.20;;;4.10;;
6013;SDS011;3035;49.928;8.410;2024-03-17T03:29:10;8.07;;;4.53;;
6013;SDS011;3035;49.928;8.410;2024-03-17T03:31:37;7.13;;;5.30;;
6013;SDS011;3035;49.928;8.410;2024-03-17T03:34:07;6.37;;;4.93;;
6013;SDS011;3035;49.928;8.410;2024-03-17T03:36:35;6.27;;;5.10;;
6013;SDS011;3035;49.928;8.410;2024-03-17T03:39:03;12.17;;;5.20;;
6013;SDS011;3035;49.928;8.410;2024-03-17T03:41:31;6.13;;;4.90;;
6013;SDS011;3035;49.928;8.410;2024-03-17T03:43:59;7.60;;;5.67;;
6013;SDS011;3035;49.928;8.410;2024-03-17T03:46:26;6.60;;;5.20;;
6013;SDS011;3035;49.928;8.410;2024-03-17T03:48:55;9.87;;;5.57;;
6013;SDS011;3035;49.928;8.410;2024-03-17T03:51:23;7.67;;;5.60;;
6013;SDS011;3035;49.928;8.410;2024-03-17T03:53:51;9.60;;;5.50;;
6013;SDS011;3035;49.928;8.410;2024-03-17T03:56:20;8.57;;;5.03;;
6013;SDS011;3035;49.928;8.410;2024-03-17T03:58:48;12.60;;;6.20;;
6013;SDS011;3035;49.928;8.410;2024-03-17T04:01:17;6.87;;;5.07;;
6013;SDS011;3035;49.928;8.410;2024-03-17T04:03:44;10.13;;;5.80;;
6013;SDS011;3035;49.928;8.410;2024-03-17T04:06:12;6.13;;;5.00;;
6013;SDS011;3035;49.928;8.410;2024-03-17T04:08:41;8.27;;;5.70;;
6013;SDS011;3035;49.928;8.410;2024-03-17T04:11:09;5.90;;;4.83;;
6013;SDS011;3035;49.928;8.410;2024-03-17T04:13:37;6.80;;;5.30;;
6013;SDS011;3035;49.928;8.410;2024-03-17T04:16:06;6.43;;;4.80;;
6013;SDS011;3035;49.928;8.410;2024-03-17T04:18:33;8.10;;;5.23;;
6013;SDS011;3035;49.928;8.410;2024-03-17T04:21:03;5.50;;;4.90;;
6013;SDS011;3035;49.928;8.410;2024-03-17T04:23:31;9.87;;;5.60;;
6013;SDS011;3035;49.928;8.410;2024-03-17T04:26:00;8.37;;;5.70;;
6013;SDS011;3035;49.928;8.410;2024-03-17T04:28:28;9.07;;;6.73;;
6013;SDS011;3035;49.928;8.410;2024-03-17T04:31:03;7.67;;;5.20;;
6013;SDS011;3035;49.928;8.410;2024-03-17T04:33:34;10.70;;;6.03;;
6013;SDS011;3035;49.928;8.410;2024-03-17T04:36:02;11.80;;;5.90;;
6013;SDS011;3035;49.928;8.410;2024-03-17T04:38:31;7.47;;;5.33;;
6013;SDS011;3035;49.928;8.410;2024-03-17T04:40:58;8.00;;;6.17;;
6013;SDS011;3035;49.928;8.410;2024-03-17T04:43:31;7.37;;;5.83;;
6013;SDS011;3035;49.928;8.410;2024-03-17T04:46:00;8.73;;;6.17;;
6013;SDS011;3035;49.928;8.410;2024-03-17T04:48:28;9.30;;;5.13;;
6013;SDS011;3035;49.928;8.410;2024-03-17T04:50:57;7.30;;;5.30;;
6013;SDS011;3035;49.928;8.410;2024-03-17T04:53:25;9.13;;;5.80;;
6013;SDS011;3035;49.928;8.410;2024-03-17T04:55:59;6.27;;;5.30;;
6013;SDS011;3035;49.928;8.410;2024-03-17T04:58:26;8.80;;;5.60;;
6013;SDS011;3035;49.928;8.410;2024-03-17T05:00:55;7.83;;;5.77;;
6013;SDS011;3035;49.928;8.410;2024-03-17T05:03:23;8.90;;;5.40;;
6013;SDS011;3035;49.928;8.410;2024-03-17T05:05:58;5.90;;;4.90;;
6013;SDS011;3035;49.928;8.410;2024-03-17T05:08:27;7.17;;;5.23;;
6013;SDS011;3035;49.928;8.410;2024-03-17T05:10:59;7.77;;;5.70;;
6013;SDS011;3035;49.928;8.410;2024-03-17T05:13:27;6.30;;;4.90;;
6013;SDS011;3035;49.928;8.410;2024-03-17T05:15:56;7.53;;;5.40;;
6013;SDS011;3035;49.928;8.410;2024-03-17T05:18:24;12.20;;;6.00;;
6013;SDS011;3035;49.928;8.410;2024-03-17T05:20:59;8.73;;;5.30;;
6013;SDS011;3035;49.928;8.410;2024-03-17T05:23:28;11.30;;;6.40;;
6013;SDS011;3035;49.928;8.410;2024-03-17T05:25:55;11.80;;;5.23;;
6013;SDS011;3035;49.928;8.410;2024-03-17T05:28:24;7.13;;;5.70;;
6013;SDS011;3035;49.928;8.410;2024-03-17T05:30:51;8.80;;;4.47;;
6013;SDS011;3035;49.928;8.410;2024-03-17T05:33:19;7.23;;;4.13;;
6013;SDS011;3035;49.928;8.410;2024-03-17T05:35:49;6.63;;;4.60;;
6013;SDS011;3035;49.928;8.410;2024-03-17T05:38:17;10.43;;;4.80;;
6013;SDS011;3035;49.928;8.410;2024-03-17T05:43:19;6.57;;;4.63;;
6013;SDS011;3035;49.928;8.410;2024-03-17T05:45:47;6.63;;;4.67;;
6013;SDS011;3035;49.928;8.410;2024-03-17T05:48:15;11.20;;;4.83;;
6013;SDS011;3035;49.928;8.410;2024-03-17T05:50:43;9.40;;;4.70;;
6013;SDS011;3035;49.928;8.410;2024-03-17T05:53:10;8.77;;;5.40;;
6013;SDS011;3035;49.928;8.410;2024-03-17T05:55:38;7.50;;;4.40;;
6013;SDS011;3035;49.928;8.410;2024-03-17T05:58:07;6.30;;;4.53;;
6013;SDS011;3035;49.928;8.410;2024-03-17T06:00:35;8.60;;;4.50;;
6013;SDS011;3035;49.928;8.410;2024-03-17T06:03:03;7.80;;;4.30;;
6013;SDS011;3035;49.928;8.410;2024-03-17T06:05:32;6.37;;;4.57;;
6013;SDS011;3035;49.928;8.410;2024-03-17T06:08:00;9.07;;;5.23;;
6013;SDS011;3035;49.928;8.410;2024-03-17T06:10:27;9.53;;;4.20;;
6013;SDS011;3035;49.928;8.410;2024-03-17T06:12:54;6.30;;;3.90;;
6013;SDS011;3035;49.928;8.410;2024-03-17T06:15:22;6.47;;;3.77;;
6013;SDS011;3035;49.928;8.410;2024-03-17T06:17:50;5.47;;;3.47;;
6013;SDS011;3035;49.928;8.410;2024-03-17T06:20:20;5.10;;;3.87;;
6013;SDS011;3035;49.928;8.410;2024-03-17T06:22:47;6.57;;;4.50;;
6013;SDS011;3035;49.928;8.410;2024-03-17T06:25:14;7.63;;;3.43;;
6013;SDS011;3035;49.928;8.410;2024-03-17T06:27:42;4.53;;;3.67;;
6013;SDS011;3035;49.928;8.410;2024-03-17T06:30:11;11.13;;;4.13;;
6013;SDS011;3035;49.928;8.410;2024-03-17T06:32:40;4.50;;;3.70;;
6013;SDS011;3035;49.928;8.410;2024-03-17T06:35:08;7.67;;;4.10;;
6013;SDS011;3035;49.928;8.410;2024-03-17T06:37:35;6.93;;;3.57;;
6013;SDS011;3035;49.928;8.410;2024-03-17T06:40:04;5.77;;;4.10;;
6013;SDS011;3035;49.928;8.410;2024-03-17T06:42:32;5.97;;;3.90;;
6013;SDS011;3035;49.928;8.410;2024-03-17T06:45:01;6.30;;;4.63;;
6013;SDS011;3035;49.928;8.410;2024-03-17T06:47:29;12.23;;;4.77;;
6013;SDS011;3035;49.928;8.410;2024-03-17T06:49:58;6.83;;;4.27;;
6013;SDS011;3035;49.928;8.410;2024-03-17T06:52:26;8.63;;;4.27;;
6013;SDS011;3035;49.928;8.410;2024-03-17T06:54:53;4.83;;;4.30;;
6013;SDS011;3035;49.928;8.410;2024-03-17T06:57:21;7.03;;;4.17;;
6013;SDS011;3035;49.928;8.410;2024-03-17T06:59:49;7.40;;;4.47;;
6013;SDS011;3035;49.928;8.410;2024-03-17T07:02:19;9.70;;;5.23;;
6013;SDS011;3035;49.928;8.410;2024-03-17T07:04:46;4.80;;;3.73;;
6013;SDS011;3035;49.928;8.410;2024-03-17T07:07:14;6.40;;;4.40;;
6013;SDS011;3035;49.928;8.410;2024-03-17T07:09:41;5.27;;;4.47;;
6013;SDS011;3035;49.928;8.410;2024-03-17T07:12:09;6.13;;;4.33;;
6013;SDS011;3035;49.928;8.410;2024-03-17T07:14:37;7.13;;;4.40;;
6013;SDS011;3035;49.928;8.410;2024-03-17T07:17:06;10.60;;;4.50;;
6013;SDS011;3035;49.928;8.410;2024-03-17T07:19:33;7.77;;;4.93;;
6013;SDS011;3035;49.928;8.410;2024-03-17T07:22:02;8.30;;;4.63;;
6013;SDS011;3035;49.928;8.410;2024-03-17T07:24:29;8.03;;;4.27;;
6013;SDS011;3035;49.928;8.410;2024-03-17T07:26:57;8.73;;;4.73;;
6013;SDS011;3035;49.928;8.410;2024-03-17T07:29:25;12.83;;;5.03;;
6013;SDS011;3035;49.928;8.410;2024-03-17T07:31:53;8.97;;;4.90;;
6013;SDS011;3035;49.928;8.410;2024-03-17T07:34:21;6.27;;;4.10;;
6013;SDS011;3035;49.928;8.410;2024-03-17T07:36:49;10.40;;;5.20;;
6013;SDS011;3035;49.928;8.410;2024-03-17T07:39:18;6.40;;;4.40;;
6013;SDS011;3035;49.928;8.410;2024-03-17T07:41:46;5.53;;;4.50;;
6013;SDS011;3035;49.928;8.410;2024-03-17T07:44:15;5.90;;;3.77;;
6013;SDS011;3035;49.928;8.410;2024-03-17T07:46:42;9.70;;;3.80;;
6013;SDS011;3035;49.928;8.410;2024-03-17T07:49:10;4.40;;;3.60;;
6013;SDS011;3035;49.928;8.410;2024-03-17T07:51:38;4.87;;;4.10;;
6013;SDS011;3035;49.928;8.410;2024-03-17T07:54:06;7.83;;;4.07;;
6013;SDS011;3035;49.928;8.410;2024-03-17T07:56:34;4.50;;;3.60;;
6013;SDS011;3035;49.928;8.410;2024-03-17T07:59:03;5.03;;;3.73;;
6013;SDS011;3035;49.928;8.410;2024-03-17T08:01:30;3.43;;;3.10;;
6013;SDS011;3035;49.928;8.410;2024-03-17T08:03:58;4.80;;;4.07;;
6013;SDS011;3035;49.928;8.410;2024-03-17T08:06:27;4.10;;;3.63;;
6013;SDS011;3035;49.928;8.410;2024-03-17T08:08:55;11.23;;;4.83;;
6013;SDS011;3035;49.928;8.410;2024-03-17T08:11:23;3.90;;;3.47;;
6013;SDS011;3035;49.928;8.410;2024-03-17T08:13:51;5.57;;;3.50;;
6013;SDS011;3035;49.928;8.410;2024-03-17T08:16:20;5.53;;;3.60;;
6013;SDS011;3035;49.928;8.410;2024-03-17T08:18:47;5.00;;;3.73;;
6013;SDS011;3035;49.928;8.410;2024-03-17T08:21:16;13.30;;;4.13;;
6013;SDS011;3035;49.928;8.410;2024-03-17T08:23:43;5.23;;;3.60;;
6013;SDS011;3035;49.928;8.410;2024-03-17T08:26:11;5.10;;;3.13;;
6013;SDS011;3035;49.928;8.410;2024-03-17T08:28:39;7.63;;;3.50;;
6013;SDS011;3035;49.928;8.410;2024-03-17T08:31:07;4.30;;;3.90;;
6013;SDS011;3035;49.928;8.410;2024-03-17T08:33:34;6.23;;;4.20;;
6013;SDS011;3035;49.928;8.410;2024-03-17T08:36:04;6.77;;;3.73;;
6013;SDS011;3035;49.928;8.410;2024-03-17T08:38:32;4.97;;;3.90;;
6013;SDS011;3035;49.928;8.410;2024-03-17T08:41:03;4.10;;;3.43;;
6013;SDS011;3035;49.928;8.410;2024-03-17T08:43:31;4.90;;;3.67;;
6013;SDS011;3035;49.928;8.410;2024-03-17T08:45:59;6.97;;;3.60;;
6013;SDS011;3035;49.928;8.410;2024-03-17T08:48:27;4.33;;;3.00;;
6013;SDS011;3035;49.928;8.410;2024-03-17T08:50:56;8.63;;;3.97;;
6013;SDS011;3035;49.928;8.410;2024-03-17T08:53:24;9.10;;;4.73;;
6013;SDS011;3035;49.928;8.410;2024-03-17T08:55:52;7.20;;;3.93;;
6013;SDS011;3035;49.928;8.410;2024-03-17T08:58:19;6.10;;;4.03;;
6013;SDS011;3035;49.928;8.410;2024-03-17T09:00:47;7.70;;;3.90;;
6013;SDS011;3035;49.928;8.410;2024-03-17T09:03:16;4.43;;;4.00;;
6013;SDS011;3035;49.928;8.410;2024-03-17T09:05:44;5.37;;;3.90;;
6013;SDS011;3035;49.928;8.410;2024-03-17T09:08:16;6.30;;;4.90;;
6013;SDS011;3035;49.928;8.410;2024-03-17T09:10:44;6.60;;;4.90;;
6013;SDS011;3035;49.928;8.410;2024-03-17T09:13:14;5.77;;;4.63;;
6013;SDS011;3035;49.928;8.410;2024-03-17T09:18:20;7.70;;;4.37;;
6013;SDS011;3035;49.928;8.410;2024-03-17T09:23:30;5.50;;;3.60;;
6013;SDS011;3035;49.928;8.410;2024-03-17T09:26:01;7.17;;;3.77;;
6013;SDS011;3035;49.928;8.410;2024-03-17T09:28:28;8.43;;;4.20;;
6013;SDS011;3035;49.928;8.410;2024-03-17T09:30:57;6.20;;;4.07;;
6013;SDS011;3035;49.928;8.410;2024-03-17T09:33:25;4.63;;;3.57;;
6013;SDS011;3035;49.928;8.410;2024-03-17T09:35:57;6.67;;;3.70;;
6013;SDS011;3035;49.928;8.410;2024-03-17T09:38:23;4.13;;;3.30;;
6013;SDS011;3035;49.928;8.410;2024-03-17T09:40:52;4.80;;;3.50;;
6013;SDS011;3035;49.928;8.410;2024-03-17T09:43:20;4.43;;;3.40;;
6013;SDS011;3035;49.928;8.410;2024-03-17T09:45:48;5.53;;;2.90;;
6013;SDS011;3035;49.928;8.410;2024-03-17T09:48:15;2.80;;;2.40;;
6013;SDS011;3035;49.928;8.410;2024-03-17T09:53:34;3.63;;;2.30;;
6013;SDS011;3035;49.928;8.410;2024-03-17T09:56:05;5.07;;;2.03;;
6013;SDS011;3035;49.928;8.410;2024-03-17T09:58:37;3.57;;;2.33;;
6013;SDS011;3035;49.928;8.410;2024-03-17T10:01:06;2.00;;;1.80;;
6013;SDS011;3035;49.928;8.410;2024-03-17T10:03:39;3.03;;;1.93;;
6013;SDS011;3035;49.928;8.410;2024-03-17T10:06:11;4.83;;;2.17;;
6013;SDS011;3035;49.928;8.410;2024-03-17T10:08:42;2.43;;;2.00;;
6013;SDS011;3035;49.928;8.410;2024-03-17T10:11:11;4.50;;;1.93;;
6013;SDS011;3035;49.928;8.410;2024-03-17T10:13:38;3.67;;;1.70;;
6013;SDS011;3035;49.928;8.410;2024-03-17T10:16:06;4.90;;;2.30;;
6013;SDS011;3035;49.928;8.410;2024-03-17T10:18:35;3.27;;;1.60;;
6013;SDS011;3035;49.928;8.410;2024-03-17T10:21:03;3.33;;;2.20;;
6013;SDS011;3035;49.928;8.410;2024-03-17T10:23:31;2.50;;;1.90;;
6013;SDS011;3035;49.928;8.410;2024-03-17T10:25:59;3.20;;;2.10;;
6013;SDS011;3035;49.928;8.410;2024-03-17T10:28:27;3.60;;;2.40;;
6013;SDS011;3035;49.928;8.410;2024-03-17T10:30:57;5.63;;;2.10;;
6013;SDS011;3035;49.928;8.410;2024-03-17T10:33:23;3.33;;;1.90;;
6013;SDS011;3035;49.928;8.410;2024-03-17T10:35:57;3.43;;;2.90;;
6013;SDS011;3035;49.928;8.410;2024-03-17T10:38:25;2.20;;;2.00;;
6013;SDS011;3035;49.928;8.410;2024-03-17T10:40:53;2.83;;;2.53;;
6013;SDS011;3035;49.928;8.410;2024-03-17T10:43:21;4.33;;;2.50;;
6013;SDS011;3035;49.928;8.410;2024-03-17T10:45:49;2.47;;;2.27;;
6013;SDS011;3035;49.928;8.410;2024-03-17T10:48:19;6.93;;;3.27;;
6013;SDS011;3035;49.928;8.410;2024-03-17T10:50:45;5.37;;;2.90;;
6013;SDS011;3035;49.928;8.410;2024-03-17T10:53:13;5.07;;;2.73;;
6013;SDS011;3035;49.928;8.410;2024-03-17T10:55:45;5.70;;;3.20;;
6013;SDS011;3035;49.928;8.410;2024-03-17T10:58:16;3.87;;;3.30;;
6013;SDS011;3035;49.928;8.410;2024-03-17T11:00:40;8.77;;;3.30;;
6013;SDS011;3035;49.928;8.410;2024-03-17T11:03:08;8.13;;;3.20;;
6013;SDS011;3035;49.928;8.410;2024-03-17T11:05:36;5.90;;;2.90;;
6013;SDS011;3035;49.928;8.410;2024-03-17T11:08:05;3.20;;;2.90;;
6013;SDS011;3035;49.928;8.410;2024-03-17T11:10:34;7.90;;;3.50;;
6013;SDS011;3035;49.928;8.410;2024-03-17T11:13:02;4.47;;;3.30;;
6013;SDS011;3035;49.928;8.410;2024-03-17T11:15:37;7.13;;;3.80;;
6013;SDS011;3035;49.928;8.410;2024-03-17T11:20:56;5.77;;;3.60;;
6013;SDS011;3035;49.928;8.410;2024-03-17T11:23:26;4.87;;;3.37;;
6013;SDS011;3035;49.928;8.410;2024-03-17T11:25:53;9.70;;;3.53;;
6013;SDS011;3035;49.928;8.410;2024-03-17T11:31:00;5.40;;;3.10;;
6013;SDS011;3035;49.928;8.410;2024-03-17T11:39:02;8.93;;;3.90;;
6013;SDS011;3035;49.928;8.410;2024-03-17T11:41:35;4.67;;;3.53;;
6013;SDS011;3035;49.928;8.410;2024-03-17T11:46:42;5.60;;;3.77;;
6013;SDS011;3035;49.928;8.410;2024-03-17T11:51:56;5.67;;;3.83;;
6013;SDS011;3035;49.928;8.410;2024-03-17T11:54:23;5.10;;;4.60;;
6013;SDS011;3035;49.928;8.410;2024-03-17T11:56:51;5.90;;;3.30;;
6013;SDS011;3035;49.928;8.410;2024-03-17T11:59:18;5.00;;;3.60;;
6013;SDS011;3035;49.928;8.410;2024-03-17T12:01:47;5.83;;;3.77;;
6013;SDS011;3035;49.928;8.410;2024-03-17T12:04:15;7.23;;;4.30;;
6013;SDS011;3035;49.928;8.410;2024-03-17T12:06:46;5.00;;;4.03;;
6013;SDS011;3035;49.928;8.410;2024-03-17T12:09:24;6.00;;;3.87;;
6013;SDS011;3035;49.928;8.410;2024-03-17T12:11:58;6.47;;;3.90;;
6013;SDS011;3035;49.928;8.410;2024-03-17T12:14:24;10.70;;;4.20;;
6013;SDS011;3035;49.928;8.410;2024-03-17T12:16:53;5.70;;;4.10;;
6013;SDS011;3035;49.928;8.410;2024-03-17T12:19:19;5.20;;;3.97;;
6013;SDS011;3035;49.928;8.410;2024-03-17T12:21:47;6.37;;;4.20;;
6013;SDS011;3035;49.928;8.410;2024-03-17T12:24:18;7.40;;;4.20;;
6013;SDS011;3035;49.928;8.410;2024-03-17T12:26:46;6.93;;;4.70;;
6013;SDS011;3035;49.928;8.410;2024-03-17T12:31:50;5.70;;;4.10;;
6013;SDS011;3035;49.928;8.410;2024-03-17T12:34:18;9.70;;;4.20;;
6013;SDS011;3035;49.928;8.410;2024-03-17T12:36:46;8.77;;;4.87;;
6013;SDS011;3035;49.928;8.410;2024-03-17T12:39:19;5.93;;;4.37;;
6013;SDS011;3035;49.928;8.410;2024-03-17T12:41:54;6.47;;;3.97;;
6013;SDS011;3035;49.928;8.410;2024-03-17T12:46:54;6.20;;;4.20;;
6013;SDS011;3035;49.928;8.410;2024-03-17T12:49:16;6.07;;;4.30;;
6013;SDS011;3035;49.928;8.410;2024-03-17T12:51:43;7.60;;;5.27;;
6013;SDS011;3035;49.928;8.410;2024-03-17T12:54:12;13.53;;;5.57;;
6013;SDS011;3035;49.928;8.410;2024-03-17T12:56:39;13.13;;;6.47;;
6013;SDS011;3035;49.928;8.410;2024-03-17T12:59:12;25.40;;;12.67;;
6013;SDS011;3035;49.928;8.410;2024-03-17T13:01:45;15.80;;;7.93;;
6013;SDS011;3035;49.928;8.410;2024-03-17T13:04:12;10.00;;;5.97;;
6013;SDS011;3035;49.928;8.410;2024-03-17T13:06:40;16.73;;;9.43;;
6013;SDS011;3035;49.928;8.410;2024-03-17T13:09:07;26.57;;;12.37;;
6013;SDS011;3035;49.928;8.410;2024-03-17T13:11:35;14.13;;;6.73;;
6013;SDS011;3035;49.928;8.410;2024-03-17T13:14:02;12.63;;;6.43;;
6013;SDS011;3035;49.928;8.410;2024-03-17T13:16:30;19.60;;;5.90;;
6013;SDS011;3035;49.928;8.410;2024-03-17T13:18:57;9.83;;;5.30;;
6013;SDS011;3035;49.928;8.410;2024-03-17T13:21:25;10.53;;;5.20;;
6013;SDS011;3035;49.928;8.410;2024-03-17T13:23:53;7.17;;;5.53;;
6013;SDS011;3035;49.928;8.410;2024-03-17T13:26:21;7.27;;;5.23;;
6013;SDS011;3035;49.928;8.410;2024-03-17T13:28:50;9.17;;;5.97;;
6013;SDS011;3035;49.928;8.410;2024-03-17T13:31:18;7.13;;;5.30;;
6013;SDS011;3035;49.928;8.410;2024-03-17T13:33:46;9.40;;;5.67;;
6013;SDS011;3035;49.928;8.410;2024-03-17T13:36:14;7.60;;;5.27;;
6013;SDS011;3035;49.928;8.410;2024-03-17T13:38:42;7.10;;;5.10;;
6013;SDS011;3035;49.928;8.410;2024-03-17T13:41:10;7.80;;;5.03;;
6013;SDS011;3035;49.928;8.410;2024-03-17T13:43:39;13.60;;;5.17;;
6013;SDS011;3035;49.928;8.410;2024-03-17T13:46:07;8.67;;;5.30;;
6013;SDS011;3035;49.928;8.410;2024-03-17T13:48:35;9.10;;;5.10;;
6013;SDS011;3035;49.928;8.410;2024-03-17T13:51:04;11.17;;;5.23;;
6013;SDS011;3035;49.928;8.410;2024-03-17T13:53:31;6.63;;;4.90;;
6013;SDS011;3035;49.928;8.410;2024-03-17T13:55:59;7.97;;;5.50;;
6013;SDS011;3035;49.928;8.410;2024-03-17T13:58:27;7.90;;;5.40;;
6013;SDS011;3035;49.928;8.410;2024-03-17T14:00:55;10.03;;;4.80;;
6013;SDS011;3035;49.928;8.410;2024-03-17T14:03:22;8.83;;;5.50;;
6013;SDS011;3035;49.928;8.410;2024-03-17T14:05:51;7.57;;;5.90;;
6013;SDS011;3035;49.928;8.410;2024-03-17T14:08:19;12.67;;;6.07;;
6013;SDS011;3035;49.928;8.410;2024-03-17T14:10:49;13.00;;;6.37;;
6013;SDS011;3035;49.928;8.410;2024-03-17T14:13:17;9.63;;;6.00;;
6013;SDS011;3035;49.928;8.410;2024-03-17T14:15:45;10.97;;;5.80;;
6013;SDS011;3035;49.928;8.410;2024-03-17T14:18:12;8.33;;;5.43;;
6013;SDS011;3035;49.928;8.410;2024-03-17T14:20:40;8.97;;;6.30;;
6013;SDS011;3035;49.928;8.410;2024-03-17T14:23:09;6.10;;;5.50;;
6013;SDS011;3035;49.928;8.410;2024-03-17T14:25:37;8.07;;;5.57;;
6013;SDS011;3035;49.928;8.410;2024-03-17T14:28:05;12.83;;;5.30;;
6013;SDS011;3035;49.928;8.410;2024-03-17T14:30:32;9.50;;;5.83;;
6013;SDS011;3035;49.928;8.410;2024-03-17T14:33:00;11.30;;;6.07;;
6013;SDS011;3035;49.928;8.410;2024-03-17T14:35:27;8.97;;;5.70;;
6013;SDS011;3035;49.928;8.410;2024-03-17T14:37:54;8.97;;;5.30;;
6013;SDS011;3035;49.928;8.410;2024-03-17T14:40:22;9.73;;;5.93;;
6013;SDS011;3035;49.928;8.410;2024-03-17T14:42:50;10.73;;;5.40;;
6013;SDS011;3035;49.928;8.410;2024-03-17T14:45:18;10.50;;;5.50;;
6013;SDS011;3035;49.928;8.410;2024-03-17T14:47:45;6.20;;;5.10;;
6013;SDS011;3035;49.928;8.410;2024-03-17T14:50:14;8.70;;;5.10;;
6013;SDS011;3035;49.928;8.410;2024-03-17T14:52:41;8.50;;;5.43;;
6013;SDS011;3035;49.928;8.410;2024-03-17T14:55:09;7.50;;;4.90;;
6013;SDS011;3035;49.928;8.410;2024-03-17T14:57:38;7.63;;;5.20;;
6013;SDS011;3035;49.928;8.410;2024-03-17T15:00:07;10.80;;;5.53;;
6013;SDS011;3035;49.928;8.410;2024-03-17T15:02:35;6.80;;;4.80;;
6013;SDS011;3035;49.928;8.410;2024-03-17T15:05:03;18.93;;;6.10;;
6013;SDS011;3035;49.928;8.410;2024-03-17T15:07:30;11.13;;;6.50;;
6013;SDS011;3035;49.928;8.410;2024-03-17T15:09:58;8.80;;;5.30;;
6013;SDS011;3035;49.928;8.410;2024-03-17T15:12:25;7.87;;;4.80;;
6013;SDS011;3035;49.928;8.410;2024-03-17T15:14:53;6.20;;;4.60;;
6013;SDS011;3035;49.928;8.410;2024-03-17T15:17:20;7.83;;;5.20;;
6013;SDS011;3035;49.928;8.410;2024-03-17T15:19:48;7.63;;;5.20;;
6013;SDS011;3035;49.928;8.410;2024-03-17T15:22:15;7.40;;;5.90;;
6013;SDS011;3035;49.928;8.410;2024-03-17T15:24:43;9.73;;;5.57;;
6013;SDS011;3035;49.928;8.410;2024-03-17T15:27:13;9.27;;;4.90;;
6013;SDS011;3035;49.928;8.410;2024-03-17T15:29:41;5.80;;;4.73;;
6013;SDS011;3035;49.928;8.410;2024-03-17T15:32:08;8.50;;;5.27;;
6013;SDS011;3035;49.928;8.410;2024-03-17T15:34:36;10.83;;;5.00;;
6013;SDS011;3035;49.928;8.410;2024-03-17T15:37:03;10.23;;;5.20;;
6013;SDS011;3035;49.928;8.410;2024-03-17T15:39:31;6.13;;;4.20;;
6013;SDS011;3035;49.928;8.410;2024-03-17T15:41:58;6.27;;;4.33;;
6013;SDS011;3035;49.928;8.410;2024-03-17T15:44:25;8.07;;;4.70;;
6013;SDS011;3035;49.928;8.410;2024-03-17T15:46:53;8.30;;;4.83;;
6013;SDS011;3035;49.928;8.410;2024-03-17T15:49:20;11.20;;;4.50;;
6013;SDS011;3035;49.928;8.410;2024-03-17T15:51:48;7.70;;;4.30;;